sensor_id;sensor_type;location;lat;lon;timestamp;P1;durP1;ratioP1;P2;durP2;ratioP2
50900;SDS011;36879;51.416;6.678;2023-04-03T00:01:31;21.40;;;12.65;;
50900;SDS011;36879;51.416;6.678;2023-04-03T00:03:57;20.35;;;12.93;;
50900;SDS011;36879;51.416;6.678;2023-04-03T00:06:23;21.25;;;12.88;;
50900;SDS011;36879;51.416;6.678;2023-04-03T00:08:50;23.85;;;13.57;;
50900;SDS011;36879;51.416;6.678;2023-04-03T00:11:16;21.45;;;13.25;;
50900;SDS011;36879;51.416;6.678;2023-04-03T00:13:42;19.05;;;11.95;;
50900;SDS011;36879;51.416;6.678;2023-04-03T00:16:09;22.17;;;13.00;;
50900;SDS011;36879;51.416;6.678;2023-04-03T00:18:36;27.58;;;14.10;;
50900;SDS011;36879;51.416;6.678;2023-04-03T00:21:02;21.90;;;13.63;;
50900;SDS011;36879;51.416;6.678;2023-04-03T00:23:28;21.65;;;12.65;;
50900;SDS011;36879;51.416;6.678;2023-04-03T00:25:54;20.77;;;12.25;;
50900;SDS011;36879;51.416;6.678;2023-04-03T00:28:20;21.85;;;12.90;;
50900;SDS011;36879;51.416;6.678;2023-04-03T00:30:48;20.23;;;11.75;;
50900;SDS011;36879;51.416;6.678;2023-04-03T00:33:14;25.95;;;12.85;;
50900;SDS011;36879;51.416;6.678;2023-04-03T00:35:40;15.98;;;11.13;;
50900;SDS011;36879;51.416;6.678;2023-04-03T00:38:06;19.38;;;12.45;;
50900;SDS011;36879;51.416;6.678;2023-04-03T00:40:33;19.02;;;11.80;;
50900;SDS011;36879;51.416;6.678;2023-04-03T00:43:00;15.70;;;10.65;;
50900;SDS011;36879;51.416;6.678;2023-04-03T00:45:28;22.77;;;11.80;;
50900;SDS011;36879;51.416;6.678;2023-04-03T00:47:54;18.10;;;11.52;;
50900;SDS011;36879;51.416;6.678;2023-04-03T00:50:21;22.67;;;12.63;;
50900;SDS011;36879;51.416;6.678;2023-04-03T00:52:47;22.65;;;12.85;;
50900;SDS011;36879;51.416;6.678;2023-04-03T00:55:14;25.10;;;13.98;;
50900;SDS011;36879;51.416;6.678;2023-04-03T00:57:41;21.98;;;11.93;;
50900;SDS011;36879;51.416;6.678;2023-04-03T01:00:09;21.70;;;14.25;;
50900;SDS011;36879;51.416;6.678;2023-04-03T01:02:35;19.35;;;12.23;;
50900;SDS011;36879;51.416;6.678;2023-04-03T01:05:02;26.70;;;12.25;;
50900;SDS011;36879;51.416;6.678;2023-04-03T01:07:29;18.15;;;12.10;;
50900;SDS011;36879;51.416;6.678;2023-04-03T01:09:56;23.38;;;12.75;;
50900;SDS011;36879;51.416;6.678;2023-04-03T01:14:50;22.92;;;11.73;;
50900;SDS011;36879;51.416;6.678;2023-04-03T01:25:17;18.90;;;10.98;;
50900;SDS011;36879;51.416;6.678;2023-04-03T01:27:43;18.95;;;10.77;;
50900;SDS011;36879;51.416;6.678;2023-04-03T01:30:09;17.15;;;10.48;;
50900;SDS011;36879;51.416;6.678;2023-04-03T01:32:36;18.13;;;10.45;;
50900;SDS011;36879;51.416;6.678;2023-04-03T01:35:02;27.42;;;11.52;;
50900;SDS011;36879;51.416;6.678;2023-04-03T01:37:28;17.25;;;11.10;;
50900;SDS011;36879;51.416;6.678;2023-04-03T01:39:54;19.70;;;10.38;;
50900;SDS011;36879;51.416;6.678;2023-04-03T01:42:20;17.45;;;10.65;;
50900;SDS011;36879;51.416;6.678;2023-04-03T01:44:46;20.73;;;11.77;;
50900;SDS011;36879;51.416;6.678;2023-04-03T01:47:12;21.08;;;11.85;;
50900;SDS011;36879;51.416;6.678;2023-04-03T01:49:38;20.60;;;12.85;;
50900;SDS011;36879;51.416;6.678;2023-04-03T01:52:04;17.92;;;11.60;;
50900;SDS011;36879;51.416;6.678;2023-04-03T01:54:30;20.45;;;11.73;;
50900;SDS011;36879;51.416;6.678;2023-04-03T01:56:56;26.27;;;13.85;;
50900;SDS011;36879;51.416;6.678;2023-04-03T01:59:22;22.60;;;12.15;;
50900;SDS011;36879;51.416;6.678;2023-04-03T02:04:21;21.58;;;12.70;;
50900;SDS011;36879;51.416;6.678;2023-04-03T02:06:47;18.70;;;11.85;;
50900;SDS011;36879;51.416;6.678;2023-04-03T02:09:13;21.88;;;12.18;;
50900;SDS011;36879;51.416;6.678;2023-04-03T02:11:39;23.15;;;12.18;;
50900;SDS011;36879;51.416;6.678;2023-04-03T02:14:05;21.00;;;11.80;;
50900;SDS011;36879;51.416;6.678;2023-04-03T02:16:31;23.00;;;13.20;;
50900;SDS011;36879;51.416;6.678;2023-04-03T02:18:57;22.02;;;12.60;;
50900;SDS011;36879;51.416;6.678;2023-04-03T02:21:23;24.95;;;12.30;;
50900;SDS011;36879;51.416;6.678;2023-04-03T02:23:49;21.02;;;12.85;;
50900;SDS011;36879;51.416;6.678;2023-04-03T02:26:16;21.73;;;11.60;;
50900;SDS011;36879;51.416;6.678;2023-04-03T02:28:42;17.38;;;10.70;;
50900;SDS011;36879;51.416;6.678;2023-04-03T02:31:08;19.25;;;10.73;;
50900;SDS011;36879;51.416;6.678;2023-04-03T02:33:35;16.27;;;10.48;;
50900;SDS011;36879;51.416;6.678;2023-04-03T02:36:02;15.63;;;9.23;;
50900;SDS011;36879;51.416;6.678;2023-04-03T02:38:28;19.80;;;10.40;;
50900;SDS011;36879;51.416;6.678;2023-04-03T02:40:59;19.77;;;11.50;;
50900;SDS011;36879;51.416;6.678;2023-04-03T02:43:25;18.88;;;10.70;;
50900;SDS011;36879;51.416;6.678;2023-04-03T02:45:51;17.42;;;10.50;;
50900;SDS011;36879;51.416;6.678;2023-04-03T02:48:17;17.25;;;10.18;;
50900;SDS011;36879;51.416;6.678;2023-04-03T02:50:43;16.60;;;9.35;;
50900;SDS011;36879;51.416;6.678;2023-04-03T02:53:09;15.38;;;9.65;;
50900;SDS011;36879;51.416;6.678;2023-04-03T02:55:35;12.38;;;7.78;;
50900;SDS011;36879;51.416;6.678;2023-04-03T02:58:01;14.93;;;7.57;;
50900;SDS011;36879;51.416;6.678;2023-04-03T03:00:28;18.15;;;8.70;;
50900;SDS011;36879;51.416;6.678;2023-04-03T03:02:54;17.23;;;8.77;;
50900;SDS011;36879;51.416;6.678;2023-04-03T03:05:20;18.40;;;7.90;;
50900;SDS011;36879;51.416;6.678;2023-04-03T03:07:46;11.85;;;8.27;;
50900;SDS011;36879;51.416;6.678;2023-04-03T03:10:13;18.13;;;8.57;;
50900;SDS011;36879;51.416;6.678;2023-04-03T03:12:39;11.65;;;7.97;;
50900;SDS011;36879;51.416;6.678;2023-04-03T03:15:06;16.35;;;7.43;;
50900;SDS011;36879;51.416;6.678;2023-04-03T03:17:32;18.48;;;7.97;;
50900;SDS011;36879;51.416;6.678;2023-04-03T03:19:58;16.38;;;7.07;;
50900;SDS011;36879;51.416;6.678;2023-04-03T03:22:25;13.23;;;7.22;;
50900;SDS011;36879;51.416;6.678;2023-04-03T03:24:51;15.95;;;6.78;;
50900;SDS011;36879;51.416;6.678;2023-04-03T03:27:17;15.25;;;7.65;;
50900;SDS011;36879;51.416;6.678;2023-04-03T03:29:43;14.98;;;6.95;;
50900;SDS011;36879;51.416;6.678;2023-04-03T03:32:09;14.32;;;6.45;;
50900;SDS011;36879;51.416;6.678;2023-04-03T03:34:35;9.07;;;5.47;;
50900;SDS011;36879;51.416;6.678;2023-04-03T03:37:01;10.52;;;6.13;;
50900;SDS011;36879;51.416;6.678;2023-04-03T03:39:27;13.38;;;5.97;;
50900;SDS011;36879;51.416;6.678;2023-04-03T03:41:53;13.48;;;5.53;;
50900;SDS011;36879;51.416;6.678;2023-04-03T03:44:19;11.25;;;5.18;;
50900;SDS011;36879;51.416;6.678;2023-04-03T03:46:45;11.40;;;4.10;;
50900;SDS011;36879;51.416;6.678;2023-04-03T03:49:11;7.43;;;4.47;;
50900;SDS011;36879;51.416;6.678;2023-04-03T03:51:37;10.75;;;5.07;;
50900;SDS011;36879;51.416;6.678;2023-04-03T03:54:04;11.75;;;3.53;;
50900;SDS011;36879;51.416;6.678;2023-04-03T03:56:30;11.05;;;4.30;;
50900;SDS011;36879;51.416;6.678;2023-04-03T03:58:56;6.50;;;3.78;;
50900;SDS011;36879;51.416;6.678;2023-04-03T04:01:22;8.05;;;3.83;;
50900;SDS011;36879;51.416;6.678;2023-04-03T04:03:49;10.18;;;3.58;;
50900;SDS011;36879;51.416;6.678;2023-04-03T04:06:15;11.38;;;3.33;;
50900;SDS011;36879;51.416;6.678;2023-04-03T04:08:41;11.13;;;2.50;;
50900;SDS011;36879;51.416;6.678;2023-04-03T04:11:07;8.68;;;3.20;;
50900;SDS011;36879;51.416;6.678;2023-04-03T04:13:33;9.88;;;2.88;;
50900;SDS011;36879;51.416;6.678;2023-04-03T04:16:00;4.55;;;2.58;;
50900;SDS011;36879;51.416;6.678;2023-04-03T04:18:26;10.45;;;4.10;;
50900;SDS011;36879;51.416;6.678;2023-04-03T04:20:52;6.00;;;1.92;;
50900;SDS011;36879;51.416;6.678;2023-04-03T04:23:18;7.22;;;2.67;;
50900;SDS011;36879;51.416;6.678;2023-04-03T04:25:45;5.65;;;3.40;;
50900;SDS011;36879;51.416;6.678;2023-04-03T04:28:11;8.55;;;2.90;;
50900;SDS011;36879;51.416;6.678;2023-04-03T04:30:37;9.45;;;2.80;;
50900;SDS011;36879;51.416;6.678;2023-04-03T04:33:03;4.32;;;2.17;;
50900;SDS011;36879;51.416;6.678;2023-04-03T04:35:29;8.35;;;2.13;;
50900;SDS011;36879;51.416;6.678;2023-04-03T04:37:55;12.20;;;3.00;;
50900;SDS011;36879;51.416;6.678;2023-04-03T04:40:22;7.75;;;3.13;;
50900;SDS011;36879;51.416;6.678;2023-04-03T04:42:48;6.72;;;2.35;;
50900;SDS011;36879;51.416;6.678;2023-04-03T04:45:14;7.97;;;3.20;;
50900;SDS011;36879;51.416;6.678;2023-04-03T04:47:40;4.60;;;2.00;;
50900;SDS011;36879;51.416;6.678;2023-04-03T04:50:06;7.30;;;2.67;;
50900;SDS011;36879;51.416;6.678;2023-04-03T04:52:32;5.05;;;2.38;;
50900;SDS011;36879;51.416;6.678;2023-04-03T04:54:58;9.45;;;2.58;;
50900;SDS011;36879;51.416;6.678;2023-04-03T04:57:25;7.90;;;2.22;;
50900;SDS011;36879;51.416;6.678;2023-04-03T04:59:51;7.70;;;2.28;;
50900;SDS011;36879;51.416;6.678;2023-04-03T05:02:17;6.20;;;2.70;;
50900;SDS011;36879;51.416;6.678;2023-04-03T05:04:43;6.93;;;2.83;;
50900;SDS011;36879;51.416;6.678;2023-04-03T05:07:09;8.98;;;2.70;;
50900;SDS011;36879;51.416;6.678;2023-04-03T05:09:35;4.00;;;2.25;;
50900;SDS011;36879;51.416;6.678;2023-04-03T05:12:02;6.47;;;2.78;;
50900;SDS011;36879;51.416;6.678;2023-04-03T05:14:28;8.15;;;2.80;;
50900;SDS011;36879;51.416;6.678;2023-04-03T05:16:54;8.63;;;2.65;;
50900;SDS011;36879;51.416;6.678;2023-04-03T05:19:21;6.40;;;2.85;;
50900;SDS011;36879;51.416;6.678;2023-04-03T05:21:47;9.63;;;3.03;;
50900;SDS011;36879;51.416;6.678;2023-04-03T05:24:15;6.50;;;2.95;;
50900;SDS011;36879;51.416;6.678;2023-04-03T05:26:41;8.32;;;3.10;;
50900;SDS011;36879;51.416;6.678;2023-04-03T05:29:08;7.20;;;3.45;;
50900;SDS011;36879;51.416;6.678;2023-04-03T05:31:34;11.13;;;3.92;;
50900;SDS011;36879;51.416;6.678;2023-04-03T05:34:00;12.45;;;3.20;;
50900;SDS011;36879;51.416;6.678;2023-04-03T05:36:26;9.52;;;3.20;;
50900;SDS011;36879;51.416;6.678;2023-04-03T05:38:52;4.90;;;3.28;;
50900;SDS011;36879;51.416;6.678;2023-04-03T05:41:19;7.32;;;2.67;;
50900;SDS011;36879;51.416;6.678;2023-04-03T05:43:46;7.32;;;2.72;;
50900;SDS011;36879;51.416;6.678;2023-04-03T05:46:12;9.90;;;3.85;;
50900;SDS011;36879;51.416;6.678;2023-04-03T05:48:38;8.88;;;2.80;;
50900;SDS011;36879;51.416;6.678;2023-04-03T05:51:05;6.53;;;2.78;;
50900;SDS011;36879;51.416;6.678;2023-04-03T05:53:32;9.90;;;2.97;;
50900;SDS011;36879;51.416;6.678;2023-04-03T05:56:00;9.23;;;2.65;;
50900;SDS011;36879;51.416;6.678;2023-04-03T05:58:26;5.97;;;2.72;;
50900;SDS011;36879;51.416;6.678;2023-04-03T06:00:52;6.30;;;3.03;;
50900;SDS011;36879;51.416;6.678;2023-04-03T06:03:18;6.97;;;2.15;;
50900;SDS011;36879;51.416;6.678;2023-04-03T06:05:44;4.78;;;2.70;;
50900;SDS011;36879;51.416;6.678;2023-04-03T06:08:11;9.90;;;2.63;;
50900;SDS011;36879;51.416;6.678;2023-04-03T06:10:37;10.15;;;3.60;;
50900;SDS011;36879;51.416;6.678;2023-04-03T06:13:03;10.85;;;2.97;;
50900;SDS011;36879;51.416;6.678;2023-04-03T06:15:29;14.32;;;3.53;;
50900;SDS011;36879;51.416;6.678;2023-04-03T06:17:55;7.80;;;3.13;;
50900;SDS011;36879;51.416;6.678;2023-04-03T06:20:21;9.82;;;3.58;;
50900;SDS011;36879;51.416;6.678;2023-04-03T06:22:48;12.55;;;3.15;;
50900;SDS011;36879;51.416;6.678;2023-04-03T06:25:14;8.00;;;3.10;;
50900;SDS011;36879;51.416;6.678;2023-04-03T06:27:42;10.15;;;3.03;;
50900;SDS011;36879;51.416;6.678;2023-04-03T06:30:08;6.07;;;2.40;;
50900;SDS011;36879;51.416;6.678;2023-04-03T06:32:34;10.02;;;4.00;;
50900;SDS011;36879;51.416;6.678;2023-04-03T06:35:00;8.45;;;2.83;;
50900;SDS011;36879;51.416;6.678;2023-04-03T06:37:26;12.05;;;3.83;;
50900;SDS011;36879;51.416;6.678;2023-04-03T06:39:53;9.82;;;3.45;;
50900;SDS011;36879;51.416;6.678;2023-04-03T06:42:20;7.45;;;2.50;;
50900;SDS011;36879;51.416;6.678;2023-04-03T06:44:46;7.97;;;2.45;;
50900;SDS011;36879;51.416;6.678;2023-04-03T06:47:15;8.77;;;3.28;;
50900;SDS011;36879;51.416;6.678;2023-04-03T06:49:42;7.20;;;2.72;;
50900;SDS011;36879;51.416;6.678;2023-04-03T06:52:08;11.15;;;2.35;;
50900;SDS011;36879;51.416;6.678;2023-04-03T06:54:35;9.95;;;2.92;;
50900;SDS011;36879;51.416;6.678;2023-04-03T06:57:01;6.60;;;3.08;;
50900;SDS011;36879;51.416;6.678;2023-04-03T06:59:27;5.70;;;2.92;;
50900;SDS011;36879;51.416;6.678;2023-04-03T07:01:53;6.35;;;2.20;;
50900;SDS011;36879;51.416;6.678;2023-04-03T07:04:19;8.35;;;3.30;;
50900;SDS011;36879;51.416;6.678;2023-04-03T07:06:46;7.28;;;2.75;;
50900;SDS011;36879;51.416;6.678;2023-04-03T07:09:12;11.68;;;3.13;;
50900;SDS011;36879;51.416;6.678;2023-04-03T07:11:38;8.85;;;2.75;;
50900;SDS011;36879;51.416;6.678;2023-04-03T07:14:04;8.73;;;2.03;;
50900;SDS011;36879;51.416;6.678;2023-04-03T07:16:32;9.20;;;3.03;;
50900;SDS011;36879;51.416;6.678;2023-04-03T07:18:58;7.18;;;2.45;;
50900;SDS011;36879;51.416;6.678;2023-04-03T07:21:24;6.72;;;1.92;;
50900;SDS011;36879;51.416;6.678;2023-04-03T07:23:50;4.30;;;2.13;;
50900;SDS011;36879;51.416;6.678;2023-04-03T07:26:16;6.85;;;1.60;;
50900;SDS011;36879;51.416;6.678;2023-04-03T07:28:42;4.18;;;1.90;;
50900;SDS011;36879;51.416;6.678;2023-04-03T07:31:12;6.30;;;2.00;;
50900;SDS011;36879;51.416;6.678;2023-04-03T07:33:39;7.82;;;2.38;;
50900;SDS011;36879;51.416;6.678;2023-04-03T07:36:06;5.32;;;1.95;;
50900;SDS011;36879;51.416;6.678;2023-04-03T07:38:33;6.82;;;3.22;;
50900;SDS011;36879;51.416;6.678;2023-04-03T07:41:00;6.85;;;2.22;;
50900;SDS011;36879;51.416;6.678;2023-04-03T07:43:26;5.70;;;2.85;;
50900;SDS011;36879;51.416;6.678;2023-04-03T07:45:52;5.60;;;2.22;;
50900;SDS011;36879;51.416;6.678;2023-04-03T07:48:22;5.95;;;2.00;;
50900;SDS011;36879;51.416;6.678;2023-04-03T07:50:49;5.45;;;1.67;;
50900;SDS011;36879;51.416;6.678;2023-04-03T07:53:15;7.40;;;2.67;;
50900;SDS011;36879;51.416;6.678;2023-04-03T07:55:41;5.90;;;2.38;;
50900;SDS011;36879;51.416;6.678;2023-04-03T07:58:11;4.38;;;2.00;;
50900;SDS011;36879;51.416;6.678;2023-04-03T08:00:38;6.20;;;2.28;;
50900;SDS011;36879;51.416;6.678;2023-04-03T08:03:04;6.05;;;1.88;;
50900;SDS011;36879;51.416;6.678;2023-04-03T08:05:30;7.53;;;2.25;;
50900;SDS011;36879;51.416;6.678;2023-04-03T08:07:56;4.25;;;1.92;;
50900;SDS011;36879;51.416;6.678;2023-04-03T08:10:23;5.55;;;2.13;;
50900;SDS011;36879;51.416;6.678;2023-04-03T08:12:49;6.22;;;1.75;;
50900;SDS011;36879;51.416;6.678;2023-04-03T08:15:16;6.65;;;2.38;;
50900;SDS011;36879;51.416;6.678;2023-04-03T08:17:42;9.73;;;2.38;;
50900;SDS011;36879;51.416;6.678;2023-04-03T08:20:09;6.63;;;1.92;;
50900;SDS011;36879;51.416;6.678;2023-04-03T08:22:35;6.40;;;2.13;;
50900;SDS011;36879;51.416;6.678;2023-04-03T08:25:01;4.80;;;1.75;;
50900;SDS011;36879;51.416;6.678;2023-04-03T08:27:27;4.85;;;2.00;;
50900;SDS011;36879;51.416;6.678;2023-04-03T08:29:54;9.05;;;3.20;;
50900;SDS011;36879;51.416;6.678;2023-04-03T08:32:20;5.95;;;1.40;;
50900;SDS011;36879;51.416;6.678;2023-04-03T08:34:47;5.47;;;2.58;;
50900;SDS011;36879;51.416;6.678;2023-04-03T08:37:13;4.53;;;1.83;;
50900;SDS011;36879;51.416;6.678;2023-04-03T08:39:41;6.63;;;1.85;;
50900;SDS011;36879;51.416;6.678;2023-04-03T08:47:28;5.97;;;1.52;;
50900;SDS011;36879;51.416;6.678;2023-04-03T08:54:55;6.55;;;2.10;;
50900;SDS011;36879;51.416;6.678;2023-04-03T08:57:26;2.88;;;1.10;;
50900;SDS011;36879;51.416;6.678;2023-04-03T08:59:53;5.68;;;1.60;;
50900;SDS011;36879;51.416;6.678;2023-04-03T09:02:25;6.32;;;1.40;;
50900;SDS011;36879;51.416;6.678;2023-04-03T09:04:52;7.07;;;1.52;;
50900;SDS011;36879;51.416;6.678;2023-04-03T09:07:38;5.15;;;1.35;;
50900;SDS011;36879;51.416;6.678;2023-04-03T09:10:05;6.40;;;2.15;;
50900;SDS011;36879;51.416;6.678;2023-04-03T09:12:38;3.53;;;1.40;;
50900;SDS011;36879;51.416;6.678;2023-04-03T09:26:05;7.82;;;1.50;;
50900;SDS011;36879;51.416;6.678;2023-04-03T09:28:33;5.90;;;1.35;;
50900;SDS011;36879;51.416;6.678;2023-04-03T09:31:18;2.35;;;1.10;;
50900;SDS011;36879;51.416;6.678;2023-04-03T09:33:45;5.72;;;2.03;;
50900;SDS011;36879;51.416;6.678;2023-04-03T09:36:11;2.25;;;1.08;;
50900;SDS011;36879;51.416;6.678;2023-04-03T09:38:37;5.30;;;1.17;;
50900;SDS011;36879;51.416;6.678;2023-04-03T09:41:11;3.97;;;1.65;;
50900;SDS011;36879;51.416;6.678;2023-04-03T09:43:39;4.15;;;1.00;;
50900;SDS011;36879;51.416;6.678;2023-04-03T09:46:18;3.10;;;1.00;;
50900;SDS011;36879;51.416;6.678;2023-04-03T09:48:51;5.28;;;1.05;;
50900;SDS011;36879;51.416;6.678;2023-04-03T09:51:17;1.38;;;0.75;;
50900;SDS011;36879;51.416;6.678;2023-04-03T09:53:44;3.25;;;1.25;;
50900;SDS011;36879;51.416;6.678;2023-04-03T09:58:43;1.20;;;0.70;;
50900;SDS011;36879;51.416;6.678;2023-04-03T10:01:31;2.25;;;0.60;;
50900;SDS011;36879;51.416;6.678;2023-04-03T10:04:10;2.60;;;0.80;;
50900;SDS011;36879;51.416;6.678;2023-04-03T10:09:25;3.88;;;1.17;;
50900;SDS011;36879;51.416;6.678;2023-04-03T10:14:24;2.15;;;0.73;;
50900;SDS011;36879;51.416;6.678;2023-04-03T10:16:59;2.13;;;0.65;;
50900;SDS011;36879;51.416;6.678;2023-04-03T10:22:34;3.42;;;0.95;;
50900;SDS011;36879;51.416;6.678;2023-04-03T10:25:01;3.67;;;1.48;;
50900;SDS011;36879;51.416;6.678;2023-04-03T10:30:30;4.05;;;1.10;;
50900;SDS011;36879;51.416;6.678;2023-04-03T10:35:34;1.15;;;0.70;;
50900;SDS011;36879;51.416;6.678;2023-04-03T10:45:49;3.58;;;1.42;;
50900;SDS011;36879;51.416;6.678;2023-04-03T10:58:35;2.85;;;1.00;;
50900;SDS011;36879;51.416;6.678;2023-04-03T11:01:03;5.80;;;1.30;;
50900;SDS011;36879;51.416;6.678;2023-04-03T11:03:42;5.35;;;1.70;;
50900;SDS011;36879;51.416;6.678;2023-04-03T11:06:10;3.28;;;1.13;;
50900;SDS011;36879;51.416;6.678;2023-04-03T11:08:42;2.90;;;0.82;;
50900;SDS011;36879;51.416;6.678;2023-04-03T11:11:11;3.17;;;1.20;;
50900;SDS011;36879;51.416;6.678;2023-04-03T11:13:40;4.75;;;1.00;;
50900;SDS011;36879;51.416;6.678;2023-04-03T11:16:08;2.63;;;1.10;;
50900;SDS011;36879;51.416;6.678;2023-04-03T11:18:45;2.92;;;1.30;;
50900;SDS011;36879;51.416;6.678;2023-04-03T11:23:39;3.92;;;1.42;;
50900;SDS011;36879;51.416;6.678;2023-04-03T11:26:13;4.43;;;1.15;;
50900;SDS011;36879;51.416;6.678;2023-04-03T11:28:40;4.32;;;1.20;;
50900;SDS011;36879;51.416;6.678;2023-04-03T11:33:51;4.07;;;1.20;;
50900;SDS011;36879;51.416;6.678;2023-04-03T11:36:25;4.60;;;1.30;;
50900;SDS011;36879;51.416;6.678;2023-04-03T11:38:53;2.85;;;0.98;;
50900;SDS011;36879;51.416;6.678;2023-04-03T11:41:25;4.55;;;1.15;;
50900;SDS011;36879;51.416;6.678;2023-04-03T11:43:59;1.58;;;1.05;;
50900;SDS011;36879;51.416;6.678;2023-04-03T11:49:49;1.88;;;0.90;;
50900;SDS011;36879;51.416;6.678;2023-04-03T11:51:56;3.28;;;1.23;;
50900;SDS011;36879;51.416;6.678;2023-04-03T11:59:53;1.90;;;1.13;;
50900;SDS011;36879;51.416;6.678;2023-04-03T12:02:37;2.53;;;1.05;;
50900;SDS011;36879;51.416;6.678;2023-04-03T12:10:32;3.72;;;1.30;;
50900;SDS011;36879;51.416;6.678;2023-04-03T12:12:58;3.50;;;1.30;;
50900;SDS011;36879;51.416;6.678;2023-04-03T12:25:51;2.78;;;1.25;;
50900;SDS011;36879;51.416;6.678;2023-04-03T12:28:17;1.70;;;1.00;;
50900;SDS011;36879;51.416;6.678;2023-04-03T12:30:43;2.03;;;1.20;;
50900;SDS011;36879;51.416;6.678;2023-04-03T12:35:56;3.90;;;1.20;;
50900;SDS011;36879;51.416;6.678;2023-04-03T12:41:25;2.65;;;0.90;;
50900;SDS011;36879;51.416;6.678;2023-04-03T12:46:22;7.93;;;1.13;;
50900;SDS011;36879;51.416;6.678;2023-04-03T12:48:50;2.20;;;0.85;;
50900;SDS011;36879;51.416;6.678;2023-04-03T12:51:35;4.13;;;1.13;;
50900;SDS011;36879;51.416;6.678;2023-04-03T12:54:48;2.78;;;1.13;;
50900;SDS011;36879;51.416;6.678;2023-04-03T12:56:49;4.30;;;1.42;;
50900;SDS011;36879;51.416;6.678;2023-04-03T12:59:18;7.53;;;1.50;;
50900;SDS011;36879;51.416;6.678;2023-04-03T13:01:44;2.95;;;1.20;;
50900;SDS011;36879;51.416;6.678;2023-04-03T13:04:18;1.92;;;1.33;;
50900;SDS011;36879;51.416;6.678;2023-04-03T13:06:44;3.10;;;1.30;;
50900;SDS011;36879;51.416;6.678;2023-04-03T13:09:23;5.32;;;1.00;;
50900;SDS011;36879;51.416;6.678;2023-04-03T13:11:52;3.90;;;1.35;;
50900;SDS011;36879;51.416;6.678;2023-04-03T13:14:22;1.65;;;0.95;;
50900;SDS011;36879;51.416;6.678;2023-04-03T13:16:58;2.35;;;0.93;;
50900;SDS011;36879;51.416;6.678;2023-04-03T13:19:25;2.33;;;1.27;;
50900;SDS011;36879;51.416;6.678;2023-04-03T13:24:41;3.95;;;1.17;;
50900;SDS011;36879;51.416;6.678;2023-04-03T13:27:07;2.60;;;1.08;;
50900;SDS011;36879;51.416;6.678;2023-04-03T13:29:36;1.85;;;1.15;;
50900;SDS011;36879;51.416;6.678;2023-04-03T13:32:03;4.03;;;1.50;;
50900;SDS011;36879;51.416;6.678;2023-04-03T13:34:35;1.95;;;1.05;;
50900;SDS011;36879;51.416;6.678;2023-04-03T13:37:03;2.75;;;1.02;;
50900;SDS011;36879;51.416;6.678;2023-04-03T13:39:31;2.67;;;1.00;;
50900;SDS011;36879;51.416;6.678;2023-04-03T13:42:02;4.00;;;1.25;;
50900;SDS011;36879;51.416;6.678;2023-04-03T13:44:39;3.90;;;1.95;;
50900;SDS011;36879;51.416;6.678;2023-04-03T13:49:38;3.10;;;1.25;;
50900;SDS011;36879;51.416;6.678;2023-04-03T13:52:22;4.35;;;1.50;;
50900;SDS011;36879;51.416;6.678;2023-04-03T13:54:54;3.83;;;1.10;;
50900;SDS011;36879;51.416;6.678;2023-04-03T13:57:21;3.25;;;1.00;;
50900;SDS011;36879;51.416;6.678;2023-04-03T13:59:47;2.08;;;1.02;;
50900;SDS011;36879;51.416;6.678;2023-04-03T14:02:22;4.07;;;0.88;;
50900;SDS011;36879;51.416;6.678;2023-04-03T14:04:51;6.35;;;1.00;;
50900;SDS011;36879;51.416;6.678;2023-04-03T14:07:21;3.72;;;1.27;;
50900;SDS011;36879;51.416;6.678;2023-04-03T14:09:47;2.95;;;1.23;;
50900;SDS011;36879;51.416;6.678;2023-04-03T14:14:45;2.15;;;1.15;;
50900;SDS011;36879;51.416;6.678;2023-04-03T14:17:19;2.05;;;1.05;;
50900;SDS011;36879;51.416;6.678;2023-04-03T14:19:46;1.95;;;1.35;;
50900;SDS011;36879;51.416;6.678;2023-04-03T14:22:17;8.27;;;1.38;;
50900;SDS011;36879;51.416;6.678;2023-04-03T14:24:43;2.45;;;1.42;;
50900;SDS011;36879;51.416;6.678;2023-04-03T14:27:15;1.33;;;0.82;;
50900;SDS011;36879;51.416;6.678;2023-04-03T14:29:41;5.75;;;1.58;;
50900;SDS011;36879;51.416;6.678;2023-04-03T14:32:10;3.90;;;1.40;;
50900;SDS011;36879;51.416;6.678;2023-04-03T14:34:36;1.90;;;1.25;;
50900;SDS011;36879;51.416;6.678;2023-04-03T14:37:04;3.10;;;1.70;;
50900;SDS011;36879;51.416;6.678;2023-04-03T14:39:30;2.90;;;1.15;;
50900;SDS011;36879;51.416;6.678;2023-04-03T14:41:56;2.05;;;1.10;;
50900;SDS011;36879;51.416;6.678;2023-04-03T14:44:22;3.38;;;0.93;;
50900;SDS011;36879;51.416;6.678;2023-04-03T14:46:48;3.10;;;1.05;;
50900;SDS011;36879;51.416;6.678;2023-04-03T14:49:18;2.17;;;1.02;;
50900;SDS011;36879;51.416;6.678;2023-04-03T14:51:45;4.18;;;1.20;;
50900;SDS011;36879;51.416;6.678;2023-04-03T14:54:15;3.90;;;1.05;;
50900;SDS011;36879;51.416;6.678;2023-04-03T14:56:42;1.17;;;0.85;;
50900;SDS011;36879;51.416;6.678;2023-04-03T14:59:09;1.75;;;1.05;;
50900;SDS011;36879;51.416;6.678;2023-04-03T15:01:36;2.20;;;1.02;;
50900;SDS011;36879;51.416;6.678;2023-04-03T15:04:13;1.67;;;1.08;;
50900;SDS011;36879;51.416;6.678;2023-04-03T15:06:39;3.50;;;1.98;;
50900;SDS011;36879;51.416;6.678;2023-04-03T15:09:05;2.08;;;1.10;;
50900;SDS011;36879;51.416;6.678;2023-04-03T15:11:31;3.80;;;1.13;;
50900;SDS011;36879;51.416;6.678;2023-04-03T15:13:57;4.25;;;1.35;;
50900;SDS011;36879;51.416;6.678;2023-04-03T15:16:23;2.75;;;1.05;;
50900;SDS011;36879;51.416;6.678;2023-04-03T15:18:49;2.03;;;1.00;;
50900;SDS011;36879;51.416;6.678;2023-04-03T15:21:15;3.28;;;1.35;;
50900;SDS011;36879;51.416;6.678;2023-04-03T15:23:41;1.23;;;0.80;;
50900;SDS011;36879;51.416;6.678;2023-04-03T15:26:07;3.85;;;1.52;;
50900;SDS011;36879;51.416;6.678;2023-04-03T15:28:38;2.85;;;1.13;;
50900;SDS011;36879;51.416;6.678;2023-04-03T15:31:05;2.55;;;1.25;;
50900;SDS011;36879;51.416;6.678;2023-04-03T15:33:31;4.32;;;1.92;;
50900;SDS011;36879;51.416;6.678;2023-04-03T15:35:58;3.25;;;1.55;;
50900;SDS011;36879;51.416;6.678;2023-04-03T15:38:24;2.45;;;1.23;;
50900;SDS011;36879;51.416;6.678;2023-04-03T15:40:50;1.92;;;1.05;;
50900;SDS011;36879;51.416;6.678;2023-04-03T15:43:16;5.80;;;1.65;;
50900;SDS011;36879;51.416;6.678;2023-04-03T15:45:42;3.92;;;1.60;;
50900;SDS011;36879;51.416;6.678;2023-04-03T15:48:09;2.47;;;1.50;;
50900;SDS011;36879;51.416;6.678;2023-04-03T15:50:35;3.20;;;1.35;;
50900;SDS011;36879;51.416;6.678;2023-04-03T15:53:02;4.00;;;1.30;;
50900;SDS011;36879;51.416;6.678;2023-04-03T15:55:29;2.63;;;1.00;;
50900;SDS011;36879;51.416;6.678;2023-04-03T15:57:55;2.83;;;1.00;;
50900;SDS011;36879;51.416;6.678;2023-04-03T16:00:22;3.28;;;1.20;;
50900;SDS011;36879;51.416;6.678;2023-04-03T16:02:49;2.05;;;1.30;;
50900;SDS011;36879;51.416;6.678;2023-04-03T16:05:16;2.47;;;1.20;;
50900;SDS011;36879;51.416;6.678;2023-04-03T16:07:42;5.25;;;1.20;;
50900;SDS011;36879;51.416;6.678;2023-04-03T16:10:08;3.28;;;1.25;;
50900;SDS011;36879;51.416;6.678;2023-04-03T16:12:35;3.25;;;1.65;;
50900;SDS011;36879;51.416;6.678;2023-04-03T16:16:48;4.13;;;1.52;;
50900;SDS011;36879;51.416;6.678;2023-04-03T16:19:15;2.05;;;1.52;;
50900;SDS011;36879;51.416;6.678;2023-04-03T16:21:41;4.18;;;1.40;;
50900;SDS011;36879;51.416;6.678;2023-04-03T16:24:07;1.98;;;1.20;;
50900;SDS011;36879;51.416;6.678;2023-04-03T16:26:33;3.42;;;1.33;;
50900;SDS011;36879;51.416;6.678;2023-04-03T16:29:02;2.50;;;1.20;;
50900;SDS011;36879;51.416;6.678;2023-04-03T16:31:28;6.28;;;1.55;;
50900;SDS011;36879;51.416;6.678;2023-04-03T16:33:54;2.72;;;1.20;;
50900;SDS011;36879;51.416;6.678;2023-04-03T16:36:21;4.30;;;1.38;;
50900;SDS011;36879;51.416;6.678;2023-04-03T16:38:47;2.97;;;1.10;;